EJA906 KCLT-KORL
Flight info
| Callsign | EJA906 |
|---|---|
| Flight time | 1h 15m |
| Altitude | 43000 |
| Route | ICONS5 NOOKS LPERD TTHOR3 |
| Aircraft | C750/M-SBDE3FGHRWXY/S |
Departure
| Time | 2026-05-04 22:06 |
|---|---|
| Airport | Charlotte Douglas International Airport (KCLT) |
Arrival
| Time | 2026-05-04 23:22 |
|---|---|
| Airport | Orlando Executive Airport (KORL) |
| Time | Latitude | Longitude | Altitude | Speed | Heading |
|---|---|---|---|---|---|
| 2026-05-04 21:52 | 35.21093 | -80.93276 | 713 ft | 0 kts | 86° |
| 2026-05-04 22:02 | 35.21094 | -80.93263 | 713 ft | 1 kts | 85° |
| 2026-05-04 22:02 | 35.21102 | -80.93246 | 713 ft | 4 kts | 14° |
| 2026-05-04 22:02 | 35.21121 | -80.93308 | 715 ft | 13 kts | 271° |
| 2026-05-04 22:02 | 35.21179 | -80.93370 | 717 ft | 12 kts | 354° |
| 2026-05-04 22:03 | 35.21265 | -80.93380 | 719 ft | 12 kts | 354° |
| 2026-05-04 22:03 | 35.21356 | -80.93386 | 721 ft | 14 kts | 354° |
| 2026-05-04 22:03 | 35.21475 | -80.93396 | 723 ft | 20 kts | 356° |
| 2026-05-04 22:03 | 35.21618 | -80.93408 | 725 ft | 20 kts | 354° |
| 2026-05-04 22:04 | 35.21756 | -80.93424 | 727 ft | 19 kts | 355° |
| 2026-05-04 22:04 | 35.21888 | -80.93428 | 728 ft | 18 kts | 8° |
| 2026-05-04 22:04 | 35.22017 | -80.93394 | 728 ft | 18 kts | 11° |
| 2026-05-04 22:04 | 35.22145 | -80.93387 | 729 ft | 18 kts | 357° |
| 2026-05-04 22:05 | 35.22267 | -80.93398 | 730 ft | 17 kts | 356° |
| 2026-05-04 22:05 | 35.22395 | -80.93408 | 732 ft | 19 kts | 355° |
| 2026-05-04 22:05 | 35.22516 | -80.93468 | 734 ft | 20 kts | 274° |
| 2026-05-04 22:05 | 35.22472 | -80.93613 | 734 ft | 20 kts | 187° |
| 2026-05-04 22:06 | 35.22215 | -80.93594 | 732 ft | 80 kts | 175° |
| 2026-05-04 22:06 | 35.21286 | -80.93508 | 838 ft | 172 kts | 178° |
| 2026-05-04 22:06 | 35.20062 | -80.93399 | 2034 ft | 191 kts | 179° |
| 2026-05-04 22:06 | 35.18670 | -80.93291 | 3042 ft | 219 kts | 179° |
| 2026-05-04 22:07 | 35.17090 | -80.93146 | 4188 ft | 242 kts | 176° |
| 2026-05-04 22:07 | 35.15319 | -80.92909 | 5149 ft | 272 kts | 175° |
| 2026-05-04 22:07 | 35.13486 | -80.92650 | 6673 ft | 272 kts | 174° |
| 2026-05-04 22:07 | 35.11645 | -80.92370 | 7566 ft | 278 kts | 175° |
| 2026-05-04 22:08 | 35.09651 | -80.92086 | 7948 ft | 298 kts | 175° |
| 2026-05-04 22:08 | 35.07629 | -80.91755 | 8334 ft | 292 kts | 174° |
| 2026-05-04 22:08 | 35.05609 | -80.91704 | 8768 ft | 297 kts | 192° |
| 2026-05-04 22:08 | 35.03572 | -80.91989 | 10068 ft | 302 kts | 188° |
| 2026-05-04 22:09 | 35.01459 | -80.92258 | 11213 ft | 313 kts | 189° |
| 2026-05-04 22:09 | 34.99264 | -80.92541 | 12099 ft | 331 kts | 189° |
| 2026-05-04 22:09 | 34.96934 | -80.92839 | 13050 ft | 344 kts | 189° |
| 2026-05-04 22:09 | 34.94527 | -80.93143 | 14168 ft | 351 kts | 189° |
| 2026-05-04 22:10 | 34.92125 | -80.93446 | 15268 ft | 355 kts | 189° |
| 2026-05-04 22:10 | 34.89650 | -80.93762 | 16367 ft | 359 kts | 189° |
| 2026-05-04 22:10 | 34.87173 | -80.94075 | 17374 ft | 365 kts | 189° |
| 2026-05-04 22:10 | 34.84616 | -80.94401 | 18326 ft | 370 kts | 189° |
| 2026-05-04 22:11 | 34.82053 | -80.94726 | 19254 ft | 375 kts | 190° |
| 2026-05-04 22:11 | 34.79433 | -80.95056 | 20145 ft | 381 kts | 191° |
| 2026-05-04 22:11 | 34.76804 | -80.95390 | 21020 ft | 386 kts | 191° |
| 2026-05-04 22:11 | 34.74104 | -80.95732 | 21884 ft | 391 kts | 191° |
| 2026-05-04 22:12 | 34.71382 | -80.96076 | 22727 ft | 395 kts | 191° |
| 2026-05-04 22:12 | 34.68681 | -80.96416 | 22958 ft | 393 kts | 191° |
| 2026-05-04 22:12 | 34.65932 | -80.96769 | 23001 ft | 397 kts | 191° |
| 2026-05-04 22:12 | 34.63142 | -80.97124 | 23010 ft | 403 kts | 191° |
| 2026-05-04 22:13 | 34.60382 | -80.97639 | 23005 ft | 404 kts | 197° |
| 2026-05-04 22:13 | 34.57548 | -80.97871 | 23021 ft | 412 kts | 184° |
| 2026-05-04 22:13 | 34.54720 | -80.98002 | 22993 ft | 396 kts | 189° |
| 2026-05-04 22:13 | 34.52006 | -80.98216 | 22992 ft | 395 kts | 189° |
| 2026-05-04 22:14 | 34.49227 | -80.98472 | 23002 ft | 402 kts | 189° |
| 2026-05-04 22:14 | 34.46426 | -80.98729 | 23006 ft | 405 kts | 189° |
| 2026-05-04 22:14 | 34.43594 | -80.98992 | 23004 ft | 406 kts | 190° |
| 2026-05-04 22:14 | 34.40817 | -80.99252 | 23156 ft | 402 kts | 190° |
| 2026-05-04 22:15 | 34.37972 | -80.99519 | 23615 ft | 410 kts | 190° |
| 2026-05-04 22:15 | 34.35159 | -80.99779 | 24564 ft | 410 kts | 190° |
| 2026-05-04 22:15 | 34.32334 | -81.00045 | 25424 ft | 411 kts | 190° |
| 2026-05-04 22:15 | 34.29469 | -81.00314 | 26161 ft | 414 kts | 190° |
| 2026-05-04 22:16 | 34.26594 | -81.00583 | 26862 ft | 418 kts | 190° |
| 2026-05-04 22:16 | 34.23675 | -81.00857 | 27496 ft | 422 kts | 190° |
| 2026-05-04 22:16 | 34.20756 | -81.01127 | 28115 ft | 427 kts | 190° |
| 2026-05-04 22:16 | 34.17766 | -81.01406 | 28755 ft | 430 kts | 190° |
| 2026-05-04 22:17 | 34.14801 | -81.01681 | 29393 ft | 433 kts | 190° |
| 2026-05-04 22:17 | 34.11778 | -81.01963 | 29990 ft | 436 kts | 190° |
| 2026-05-04 22:17 | 34.08770 | -81.02243 | 30616 ft | 438 kts | 190° |
| 2026-05-04 22:17 | 34.05709 | -81.02527 | 31214 ft | 441 kts | 190° |
| 2026-05-04 22:18 | 34.02658 | -81.02813 | 31762 ft | 445 kts | 190° |
| 2026-05-04 22:18 | 33.99519 | -81.03104 | 32276 ft | 449 kts | 189° |
| 2026-05-04 22:18 | 33.96441 | -81.03543 | 32767 ft | 449 kts | 194° |
| 2026-05-04 22:18 | 33.93290 | -81.03741 | 33357 ft | 456 kts | 185° |
| 2026-05-04 22:19 | 33.90140 | -81.03878 | 34051 ft | 452 kts | 188° |
| 2026-05-04 22:19 | 33.86980 | -81.04087 | 34767 ft | 449 kts | 189° |
| 2026-05-04 22:19 | 33.83826 | -81.04319 | 35365 ft | 446 kts | 189° |
| 2026-05-04 22:19 | 33.80676 | -81.04555 | 35915 ft | 444 kts | 189° |
| 2026-05-04 22:20 | 33.77576 | -81.04793 | 36419 ft | 444 kts | 189° |
| 2026-05-04 22:20 | 33.74465 | -81.05031 | 37050 ft | 444 kts | 190° |
| 2026-05-04 22:20 | 33.71325 | -81.05267 | 37585 ft | 445 kts | 190° |
| 2026-05-04 22:20 | 33.68186 | -81.05507 | 38148 ft | 443 kts | 190° |
| 2026-05-04 22:21 | 33.65047 | -81.05745 | 38696 ft | 442 kts | 190° |
| 2026-05-04 22:21 | 33.61979 | -81.05980 | 39169 ft | 442 kts | 191° |
| 2026-05-04 22:21 | 33.58884 | -81.06213 | 39591 ft | 442 kts | 191° |
| 2026-05-04 22:21 | 33.55827 | -81.06444 | 39959 ft | 442 kts | 191° |
| 2026-05-04 22:22 | 33.52729 | -81.06681 | 40312 ft | 443 kts | 191° |
| 2026-05-04 22:22 | 33.49672 | -81.06912 | 40694 ft | 442 kts | 191° |
| 2026-05-04 22:22 | 33.46605 | -81.07144 | 41010 ft | 443 kts | 191° |
| 2026-05-04 22:22 | 33.43500 | -81.07379 | 41359 ft | 442 kts | 191° |
| 2026-05-04 22:23 | 33.40438 | -81.07609 | 41699 ft | 442 kts | 191° |
| 2026-05-04 22:23 | 33.37351 | -81.07841 | 42028 ft | 442 kts | 191° |
| 2026-05-04 22:23 | 33.34276 | -81.08074 | 42367 ft | 441 kts | 192° |
| 2026-05-04 22:23 | 33.31234 | -81.08304 | 42636 ft | 442 kts | 192° |
| 2026-05-04 22:24 | 33.28137 | -81.08537 | 42899 ft | 443 kts | 192° |
| 2026-05-04 22:24 | 33.25057 | -81.08773 | 43018 ft | 448 kts | 192° |
| 2026-05-04 22:24 | 33.21916 | -81.09010 | 43034 ft | 454 kts | 191° |
| 2026-05-04 22:25 | 33.15548 | -81.09489 | 43035 ft | 466 kts | 191° |
| 2026-05-04 22:25 | 33.08968 | -81.09980 | 43036 ft | 478 kts | 191° |
| 2026-05-04 22:26 | 33.02261 | -81.10484 | 43037 ft | 488 kts | 191° |
| 2026-05-04 22:26 | 32.95419 | -81.10995 | 43041 ft | 498 kts | 191° |
| 2026-05-04 22:27 | 32.88392 | -81.11518 | 43043 ft | 507 kts | 191° |
| 2026-05-04 22:27 | 32.81396 | -81.12038 | 43036 ft | 500 kts | 191° |
| 2026-05-04 22:28 | 32.74509 | -81.12549 | 43036 ft | 492 kts | 191° |
| 2026-05-04 22:28 | 32.67666 | -81.13057 | 43034 ft | 486 kts | 192° |
| 2026-05-04 22:29 | 32.60979 | -81.13555 | 43038 ft | 481 kts | 192° |
| 2026-05-04 22:29 | 32.54349 | -81.14043 | 43044 ft | 476 kts | 192° |
| 2026-05-04 22:30 | 32.47742 | -81.14533 | 43049 ft | 472 kts | 192° |
| 2026-05-04 22:30 | 32.41247 | -81.15014 | 43050 ft | 467 kts | 192° |
| 2026-05-04 22:31 | 32.34755 | -81.15491 | 43053 ft | 464 kts | 192° |
| 2026-05-04 22:31 | 32.28350 | -81.15965 | 43061 ft | 460 kts | 193° |
| 2026-05-04 22:32 | 32.21994 | -81.16430 | 43061 ft | 457 kts | 193° |
| 2026-05-04 22:32 | 32.15630 | -81.16899 | 43065 ft | 454 kts | 193° |
| 2026-05-04 22:33 | 32.09323 | -81.17368 | 43063 ft | 452 kts | 193° |
| 2026-05-04 22:33 | 32.03066 | -81.17821 | 43063 ft | 452 kts | 193° |
| 2026-05-04 22:34 | 31.96769 | -81.18281 | 43067 ft | 455 kts | 193° |
| 2026-05-04 22:34 | 31.90387 | -81.18749 | 43076 ft | 457 kts | 193° |
| 2026-05-04 22:35 | 31.84012 | -81.19214 | 43067 ft | 460 kts | 193° |
| 2026-05-04 22:35 | 31.77580 | -81.19682 | 43065 ft | 462 kts | 193° |
| 2026-05-04 22:36 | 31.71162 | -81.20149 | 43059 ft | 465 kts | 193° |
| 2026-05-04 22:36 | 31.64664 | -81.20621 | 43069 ft | 466 kts | 193° |
| 2026-05-04 22:37 | 31.58181 | -81.21091 | 43077 ft | 468 kts | 193° |
| 2026-05-04 22:37 | 31.51677 | -81.21563 | 43062 ft | 470 kts | 193° |
| 2026-05-04 22:38 | 31.45134 | -81.22035 | 43073 ft | 472 kts | 193° |
| 2026-05-04 22:38 | 31.38588 | -81.22509 | 43088 ft | 474 kts | 193° |
| 2026-05-04 22:39 | 31.31954 | -81.22986 | 43071 ft | 475 kts | 193° |
| 2026-05-04 22:39 | 31.25371 | -81.23461 | 43070 ft | 477 kts | 193° |
| 2026-05-04 22:40 | 31.18767 | -81.23935 | 43085 ft | 478 kts | 193° |
| 2026-05-04 22:40 | 31.12096 | -81.24416 | 43074 ft | 479 kts | 193° |
| 2026-05-04 22:41 | 31.05445 | -81.24891 | 43061 ft | 481 kts | 192° |
| 2026-05-04 22:41 | 30.98841 | -81.25354 | 43033 ft | 456 kts | 193° |
| 2026-05-04 22:41 | 30.95745 | -81.25574 | 42139 ft | 449 kts | 193° |
| 2026-05-04 22:42 | 30.92619 | -81.25808 | 40712 ft | 449 kts | 193° |
| 2026-05-04 22:42 | 30.89497 | -81.26035 | 39164 ft | 451 kts | 193° |
| 2026-05-04 22:42 | 30.86376 | -81.26257 | 37809 ft | 452 kts | 193° |
| 2026-05-04 22:42 | 30.83234 | -81.26485 | 36373 ft | 453 kts | 193° |
| 2026-05-04 22:43 | 30.80101 | -81.26702 | 34446 ft | 450 kts | 192° |
| 2026-05-04 22:43 | 30.77014 | -81.26928 | 32805 ft | 444 kts | 192° |
| 2026-05-04 22:43 | 30.73989 | -81.27134 | 32229 ft | 425 kts | 192° |
| 2026-05-04 22:43 | 30.71136 | -81.27331 | 31804 ft | 404 kts | 193° |
| 2026-05-04 22:44 | 30.68366 | -81.27525 | 31381 ft | 386 kts | 193° |
| 2026-05-04 22:44 | 30.65760 | -81.27709 | 31048 ft | 369 kts | 193° |
| 2026-05-04 22:44 | 30.63211 | -81.27898 | 30768 ft | 370 kts | 193° |
| 2026-05-04 22:44 | 30.60662 | -81.28081 | 30524 ft | 366 kts | 192° |
| 2026-05-04 22:45 | 30.58089 | -81.28024 | 30108 ft | 370 kts | 187° |
| 2026-05-04 22:45 | 30.52837 | -81.27750 | 29641 ft | 394 kts | 186° |
| 2026-05-04 22:45 | 30.50041 | -81.27608 | 29365 ft | 409 kts | 186° |
| 2026-05-04 22:46 | 30.47138 | -81.27457 | 29073 ft | 415 kts | 186° |
| 2026-05-04 22:46 | 30.44240 | -81.27302 | 28751 ft | 413 kts | 186° |
| 2026-05-04 22:46 | 30.41375 | -81.27151 | 28435 ft | 412 kts | 186° |
| 2026-05-04 22:46 | 30.38527 | -81.27007 | 28070 ft | 412 kts | 185° |
| 2026-05-04 22:47 | 30.35637 | -81.26860 | 27629 ft | 414 kts | 185° |
| 2026-05-04 22:47 | 30.32775 | -81.26716 | 27179 ft | 416 kts | 185° |
| 2026-05-04 22:47 | 30.29888 | -81.26566 | 26725 ft | 407 kts | 185° |
| 2026-05-04 22:47 | 30.27117 | -81.26418 | 26202 ft | 399 kts | 184° |
| 2026-05-04 22:48 | 30.24339 | -81.26249 | 25807 ft | 401 kts | 184° |
| 2026-05-04 22:48 | 30.21587 | -81.26078 | 25323 ft | 389 kts | 184° |
| 2026-05-04 22:48 | 30.18923 | -81.25913 | 24777 ft | 381 kts | 184° |
| 2026-05-04 22:48 | 30.16283 | -81.25754 | 24199 ft | 382 kts | 184° |
| 2026-05-04 22:49 | 30.13612 | -81.25594 | 23544 ft | 382 kts | 183° |
| 2026-05-04 22:49 | 30.10978 | -81.25434 | 22901 ft | 382 kts | 184° |
| 2026-05-04 22:49 | 30.08413 | -81.25862 | 22253 ft | 365 kts | 207° |
| 2026-05-04 22:49 | 30.06379 | -81.27451 | 21693 ft | 348 kts | 232° |
| 2026-05-04 22:50 | 30.05257 | -81.29788 | 21258 ft | 333 kts | 257° |
| 2026-05-04 22:50 | 30.05111 | -81.32395 | 20972 ft | 322 kts | 272° |
| 2026-05-04 22:50 | 30.05214 | -81.34952 | 20628 ft | 317 kts | 273° |
| 2026-05-04 22:50 | 30.05320 | -81.37479 | 20298 ft | 312 kts | 273° |
| 2026-05-04 22:51 | 30.05427 | -81.39968 | 19973 ft | 317 kts | 273° |
| 2026-05-04 22:51 | 30.05541 | -81.42561 | 19626 ft | 333 kts | 273° |
| 2026-05-04 22:51 | 30.05305 | -81.45247 | 19293 ft | 347 kts | 253° |
| 2026-05-04 22:51 | 30.03989 | -81.47643 | 19027 ft | 363 kts | 228° |
| 2026-05-04 22:52 | 30.01897 | -81.49154 | 18718 ft | 359 kts | 204° |
| 2026-05-04 22:52 | 29.99410 | -81.49470 | 18388 ft | 364 kts | 178° |
| 2026-05-04 22:52 | 29.97003 | -81.48509 | 18079 ft | 379 kts | 152° |
| 2026-05-04 22:52 | 29.95055 | -81.46439 | 17763 ft | 388 kts | 131° |
| 2026-05-04 22:53 | 29.93142 | -81.44209 | 17409 ft | 389 kts | 144° |
| 2026-05-04 22:53 | 29.90999 | -81.42329 | 17064 ft | 391 kts | 146° |
| 2026-05-04 22:53 | 29.88807 | -81.40551 | 16703 ft | 375 kts | 148° |
| 2026-05-04 22:53 | 29.86710 | -81.38904 | 16354 ft | 360 kts | 149° |
| 2026-05-04 22:54 | 29.84655 | -81.37315 | 16040 ft | 346 kts | 149° |
| 2026-05-04 22:54 | 29.82692 | -81.35799 | 15747 ft | 334 kts | 148° |
| 2026-05-04 22:54 | 29.80760 | -81.34316 | 15462 ft | 345 kts | 149° |
| 2026-05-04 22:54 | 29.78740 | -81.32764 | 15178 ft | 348 kts | 148° |
| 2026-05-04 22:55 | 29.76733 | -81.31222 | 14808 ft | 351 kts | 148° |
| 2026-05-04 22:55 | 29.74675 | -81.29639 | 14332 ft | 354 kts | 148° |
| 2026-05-04 22:55 | 29.72636 | -81.28075 | 13800 ft | 357 kts | 147° |
| 2026-05-04 22:55 | 29.70552 | -81.26477 | 13206 ft | 354 kts | 147° |
| 2026-05-04 22:56 | 29.68556 | -81.24940 | 12615 ft | 343 kts | 147° |
| 2026-05-04 22:56 | 29.66541 | -81.23605 | 12090 ft | 328 kts | 163° |
| 2026-05-04 22:56 | 29.64342 | -81.23260 | 12064 ft | 315 kts | 179° |
| 2026-05-04 22:56 | 29.62109 | -81.23106 | 12038 ft | 325 kts | 179° |
| 2026-05-04 22:57 | 29.59832 | -81.22971 | 11927 ft | 326 kts | 179° |
| 2026-05-04 22:57 | 29.57563 | -81.22842 | 11837 ft | 334 kts | 179° |
| 2026-05-04 22:57 | 29.55217 | -81.22711 | 11742 ft | 337 kts | 179° |
| 2026-05-04 22:57 | 29.52860 | -81.22578 | 11648 ft | 338 kts | 179° |
| 2026-05-04 22:58 | 29.50528 | -81.22450 | 11546 ft | 329 kts | 179° |
| 2026-05-04 22:58 | 29.48263 | -81.22322 | 11446 ft | 321 kts | 179° |
| 2026-05-04 22:58 | 29.46065 | -81.22201 | 11356 ft | 315 kts | 179° |
| 2026-05-04 22:58 | 29.43887 | -81.22078 | 11272 ft | 314 kts | 179° |
| 2026-05-04 22:59 | 29.41648 | -81.21958 | 11204 ft | 326 kts | 179° |
| 2026-05-04 22:59 | 29.39360 | -81.21831 | 11129 ft | 328 kts | 179° |
| 2026-05-04 22:59 | 29.37158 | -81.21709 | 11016 ft | 300 kts | 179° |
| 2026-05-04 22:59 | 29.35134 | -81.21618 | 10888 ft | 297 kts | 180° |
| 2026-05-04 23:00 | 29.33006 | -81.21536 | 10311 ft | 312 kts | 179° |
| 2026-05-04 23:00 | 29.30851 | -81.21445 | 10014 ft | 294 kts | 180° |
| 2026-05-04 23:00 | 29.28829 | -81.21359 | 9426 ft | 292 kts | 180° |
| 2026-05-04 23:00 | 29.26802 | -81.21285 | 8931 ft | 285 kts | 180° |
| 2026-05-04 23:01 | 29.24839 | -81.21205 | 8754 ft | 281 kts | 179° |
| 2026-05-04 23:01 | 29.22920 | -81.21078 | 8768 ft | 277 kts | 178° |
| 2026-05-04 23:01 | 29.20986 | -81.20940 | 8809 ft | 273 kts | 178° |
| 2026-05-04 23:01 | 29.19083 | -81.20808 | 8768 ft | 274 kts | 178° |
| 2026-05-04 23:02 | 29.17191 | -81.20686 | 8670 ft | 280 kts | 179° |
| 2026-05-04 23:02 | 29.15202 | -81.20554 | 8298 ft | 285 kts | 178° |
| 2026-05-04 23:02 | 29.13257 | -81.20418 | 7792 ft | 277 kts | 178° |
| 2026-05-04 23:02 | 29.11331 | -81.20312 | 7133 ft | 274 kts | 180° |
| 2026-05-04 23:03 | 29.09462 | -81.20295 | 6629 ft | 267 kts | 181° |
| 2026-05-04 23:03 | 29.07628 | -81.20283 | 6181 ft | 259 kts | 180° |
| 2026-05-04 23:03 | 29.05829 | -81.20267 | 5749 ft | 262 kts | 179° |
| 2026-05-04 23:03 | 29.03999 | -81.20254 | 5336 ft | 262 kts | 179° |
| 2026-05-04 23:04 | 29.02190 | -81.20357 | 5019 ft | 254 kts | 191° |
| 2026-05-04 23:04 | 29.00503 | -81.20875 | 5001 ft | 257 kts | 194° |
| 2026-05-04 23:04 | 28.98749 | -81.21400 | 4998 ft | 261 kts | 194° |
| 2026-05-04 23:04 | 28.97052 | -81.21917 | 4974 ft | 242 kts | 193° |
| 2026-05-04 23:05 | 28.95489 | -81.22392 | 4960 ft | 223 kts | 193° |
| 2026-05-04 23:05 | 28.93967 | -81.22852 | 4989 ft | 231 kts | 193° |
| 2026-05-04 23:05 | 28.92416 | -81.23320 | 4982 ft | 227 kts | 194° |
| 2026-05-04 23:05 | 28.90908 | -81.23763 | 4979 ft | 222 kts | 193° |
| 2026-05-04 23:06 | 28.89426 | -81.24181 | 4966 ft | 218 kts | 193° |
| 2026-05-04 23:06 | 28.87935 | -81.24603 | 4954 ft | 218 kts | 193° |
| 2026-05-04 23:06 | 28.86467 | -81.25021 | 4933 ft | 216 kts | 193° |
| 2026-05-04 23:06 | 28.85010 | -81.25436 | 4908 ft | 215 kts | 192° |
| 2026-05-04 23:07 | 28.83548 | -81.25851 | 4880 ft | 214 kts | 193° |
| 2026-05-04 23:07 | 28.82106 | -81.26257 | 4849 ft | 214 kts | 192° |
| 2026-05-04 23:07 | 28.80775 | -81.26994 | 4839 ft | 213 kts | 220° |
| 2026-05-04 23:07 | 28.79717 | -81.28152 | 4969 ft | 207 kts | 223° |
| 2026-05-04 23:08 | 28.78681 | -81.29290 | 4981 ft | 209 kts | 223° |
| 2026-05-04 23:08 | 28.77630 | -81.30447 | 4985 ft | 212 kts | 223° |
| 2026-05-04 23:08 | 28.76539 | -81.31640 | 4988 ft | 218 kts | 223° |
| 2026-05-04 23:08 | 28.75436 | -81.32848 | 4988 ft | 224 kts | 223° |
| 2026-05-04 23:09 | 28.74291 | -81.34093 | 4984 ft | 227 kts | 223° |
| 2026-05-04 23:09 | 28.73146 | -81.35339 | 4978 ft | 228 kts | 223° |
| 2026-05-04 23:09 | 28.72002 | -81.36591 | 4976 ft | 227 kts | 223° |
| 2026-05-04 23:09 | 28.70862 | -81.37837 | 4972 ft | 225 kts | 223° |
| 2026-05-04 23:10 | 28.69750 | -81.39052 | 4969 ft | 222 kts | 222° |
| 2026-05-04 23:10 | 28.68637 | -81.40275 | 4969 ft | 220 kts | 223° |
| 2026-05-04 23:10 | 28.67545 | -81.41474 | 4970 ft | 219 kts | 223° |
| 2026-05-04 23:10 | 28.66440 | -81.42686 | 4970 ft | 220 kts | 223° |
| 2026-05-04 23:11 | 28.65329 | -81.43904 | 4969 ft | 220 kts | 223° |
| 2026-05-04 23:11 | 28.64237 | -81.45100 | 4960 ft | 218 kts | 223° |
| 2026-05-04 23:11 | 28.63129 | -81.46311 | 4758 ft | 219 kts | 223° |
| 2026-05-04 23:11 | 28.62034 | -81.47517 | 4540 ft | 220 kts | 223° |
| 2026-05-04 23:12 | 28.60945 | -81.48724 | 4290 ft | 221 kts | 223° |
| 2026-05-04 23:12 | 28.59831 | -81.49963 | 4062 ft | 221 kts | 223° |
| 2026-05-04 23:12 | 28.58743 | -81.51183 | 3825 ft | 222 kts | 223° |
| 2026-05-04 23:12 | 28.57662 | -81.52416 | 3686 ft | 211 kts | 223° |
| 2026-05-04 23:13 | 28.56661 | -81.53565 | 3550 ft | 201 kts | 223° |
| 2026-05-04 23:13 | 28.55692 | -81.54687 | 3278 ft | 200 kts | 223° |
| 2026-05-04 23:13 | 28.54714 | -81.55830 | 3019 ft | 203 kts | 223° |
| 2026-05-04 23:13 | 28.53712 | -81.57000 | 2991 ft | 208 kts | 223° |
| 2026-05-04 23:14 | 28.52693 | -81.58194 | 2974 ft | 206 kts | 223° |
| 2026-05-04 23:14 | 28.51725 | -81.59340 | 2959 ft | 197 kts | 223° |
| 2026-05-04 23:14 | 28.50626 | -81.60136 | 2952 ft | 180 kts | 186° |
| 2026-05-04 23:14 | 28.49424 | -81.60136 | 2964 ft | 172 kts | 156° |
| 2026-05-04 23:15 | 28.48452 | -81.59384 | 3002 ft | 173 kts | 140° |
| 2026-05-04 23:15 | 28.47311 | -81.58772 | 2993 ft | 183 kts | 146° |
| 2026-05-04 23:15 | 28.46357 | -81.57829 | 2996 ft | 186 kts | 129° |
| 2026-05-04 23:15 | 28.45833 | -81.56541 | 2967 ft | 176 kts | 90° |
| 2026-05-04 23:16 | 28.46189 | -81.55177 | 3013 ft | 192 kts | 68° |
| 2026-05-04 23:16 | 28.46690 | -81.53814 | 2973 ft | 182 kts | 70° |
| 2026-05-04 23:16 | 28.47171 | -81.52500 | 2967 ft | 174 kts | 69° |
| 2026-05-04 23:16 | 28.47625 | -81.51296 | 2966 ft | 161 kts | 69° |
| 2026-05-04 23:17 | 28.48060 | -81.50153 | 2960 ft | 155 kts | 69° |
| 2026-05-04 23:17 | 28.48473 | -81.49078 | 2991 ft | 137 kts | 69° |
| 2026-05-04 23:17 | 28.48834 | -81.48141 | 2789 ft | 127 kts | 70° |
| 2026-05-04 23:17 | 28.49182 | -81.47231 | 2600 ft | 124 kts | 70° |
| 2026-05-04 23:18 | 28.49507 | -81.46354 | 2372 ft | 119 kts | 70° |
| 2026-05-04 23:18 | 28.49842 | -81.45494 | 2180 ft | 118 kts | 71° |
| 2026-05-04 23:18 | 28.50142 | -81.44655 | 2026 ft | 115 kts | 71° |
| 2026-05-04 23:18 | 28.50471 | -81.43814 | 1898 ft | 118 kts | 69° |
| 2026-05-04 23:19 | 28.50807 | -81.42957 | 1802 ft | 117 kts | 70° |
| 2026-05-04 23:19 | 28.51136 | -81.42107 | 1662 ft | 119 kts | 70° |
| 2026-05-04 23:19 | 28.51466 | -81.41246 | 1497 ft | 118 kts | 69° |
| 2026-05-04 23:19 | 28.51806 | -81.40392 | 1298 ft | 117 kts | 70° |
| 2026-05-04 23:20 | 28.52122 | -81.39549 | 1124 ft | 115 kts | 69° |
| 2026-05-04 23:20 | 28.52441 | -81.38731 | 954 ft | 114 kts | 70° |
| 2026-05-04 23:20 | 28.52763 | -81.37913 | 838 ft | 113 kts | 70° |
| 2026-05-04 23:20 | 28.53072 | -81.37071 | 699 ft | 113 kts | 70° |
| 2026-05-04 23:21 | 28.53390 | -81.36235 | 557 ft | 114 kts | 70° |
| 2026-05-04 23:21 | 28.53711 | -81.35416 | 406 ft | 115 kts | 69° |
| 2026-05-04 23:21 | 28.54032 | -81.34572 | 256 ft | 116 kts | 70° |
| 2026-05-04 23:21 | 28.54359 | -81.33739 | 128 ft | 112 kts | 68° |
| 2026-05-04 23:22 | 28.54629 | -81.33024 | 111 ft | 80 kts | 68° |
| 2026-05-04 23:22 | 28.54776 | -81.32761 | 112 ft | 24 kts | 32° |
| 2026-05-04 23:22 | 28.54844 | -81.32713 | 112 ft | 0 kts | 21° |
| 2026-05-04 23:22 | 28.54847 | -81.32712 | 112 ft | 0 kts | 12° |
| 2026-05-04 23:23 | 28.54849 | -81.32711 | 112 ft | 0 kts | 6° |
| 2026-05-04 23:23 | 28.54850 | -81.32711 | 112 ft | 0 kts | 4° |
| 2026-05-04 23:23 | 28.54851 | -81.32711 | 112 ft | 0 kts | 4° |
| 2026-05-04 23:23 | 28.54854 | -81.32711 | 112 ft | 0 kts | 0° |
| 2026-05-04 23:24 | 28.54860 | -81.32711 | 112 ft | 0 kts | 354° |
| 2026-05-04 23:24 | 28.54866 | -81.32713 | 112 ft | 1 kts | 338° |
| 2026-05-04 23:24 | 28.54880 | -81.32747 | 112 ft | 11 kts | 242° |
| 2026-05-04 23:24 | 28.54839 | -81.32856 | 112 ft | 19 kts | 248° |
| 2026-05-04 23:25 | 28.54781 | -81.33009 | 111 ft | 19 kts | 248° |
| 2026-05-04 23:25 | 28.54728 | -81.33157 | 110 ft | 21 kts | 251° |
| 2026-05-04 23:25 | 28.54711 | -81.33317 | 109 ft | 18 kts | 262° |
| 2026-05-04 23:25 | 28.54702 | -81.33403 | 109 ft | 10 kts | 265° |
| 2026-05-04 23:26 | 28.54694 | -81.33496 | 108 ft | 14 kts | 262° |
| 2026-05-04 23:26 | 28.54691 | -81.33610 | 108 ft | 13 kts | 295° |
| 2026-05-04 23:26 | 28.54743 | -81.33683 | 107 ft | 9 kts | 308° |
| 2026-05-04 23:26 | 28.54755 | -81.33736 | 107 ft | 6 kts | 292° |
| 2026-05-04 23:27 | 28.54775 | -81.33762 | 107 ft | 0 kts | 313° |